Fall Creek, Illinois
Current Conditions -  °F | °C
As of 9:15 AM on Friday 24 Oct 2014 (Local Time) from KHAE Reporting Station
Moderate Fog Moderate Fog  
Wind Chill: 55°   Ceiling: 200
Heat Index: 55°   Visibility: 0.25mi
Dew Point: 52°   Wind: 7mph
Humidity: 88%   Direction: 190°S
Pressure: 30.1"   Gusts: NA
Location:  39.806°N, 91.2945°W
Report Text: KHAE 241415Z AUTO 19006KT 1/4SM FG OVC002 13/11 A3010 RMK AO2
Loading
Personal Weather Stations






























Interactive Weather Map
Tropical Storm Tracking
New forecast layout! Learn more

10-Day Weather Forecast

Advertisements
Track Severe Weather on mobile